Latest Coastal Weather Observations for Smithton

IDV60701

Issued at 9:21 pm EST Monday 27 June 2016 (issued every 10 minutes, with the page automatically refreshed every 10 minutes)

About coastal observations | Map of coastal stations | Coastal observations for VIC | Marine services | Other Formats
Station Details ID: 091292 Name: SMITHTON AERODROME Lat: -40.83 Lon: 145.08 Height: 7.5 m
Data from the previous 72 hours. | See also: Recent months at Smithton
Date/Time
EST
Temp
°C
Wind Pressure Rain since
9am
mm
Weather Cloud Vis
km
Sea
Height
m
Swell
Dir  Spd
kts
Gust
kts
hPa Trend Height
m
Period
s
Dir
27/09:00pm 5.7 CALM 0 0 1016.0 - 0.4 - - - - - - -
27/08:30pm 7.0 CALM 0 3 1016.0 - 0.4 - - - - - - -
27/08:00pm 7.1 W 4 5 1016.0 - 0.2 - - - - - - -
27/07:30pm 6.3 WNW 3 6 1015.7 - 0.2 - - - - - - -
27/07:00pm 7.2 CALM 0 0 1015.5 - 0.2 - - - - - - -
27/06:30pm 7.8 NW 3 4 1015.3 - 0.2 - - - - - - -
27/06:00pm 8.6 NW 4 5 1015.1 - 0.2 - - - - - - -
27/05:30pm 9.0 WSW 5 6 1014.7 - 0.2 - - - - - - -
27/05:00pm 9.1 W 6 6 1014.4 - 0.2 - - - - - - -
27/04:30pm 10.2 W 7 9 1014.3 - 0.2 - - - - - - -
27/04:00pm 11.6 WSW 9 12 1014.1 - 0.2 - - - - - - -
27/03:30pm 11.9 W 8 11 1014.0 - 0.2 - - - - - - -
27/03:00pm 11.7 W 9 11 1013.8 - 0.2 - - - - - - -
27/02:30pm 12.1 W 11 14 1013.8 - 0.2 - - - - - - -
27/02:00pm 12.2 W 10 12 1013.7 - 0.2 - - - - - - -
27/01:30pm 11.2 WSW 9 12 1013.8 - 0.2 - - - - - - -
27/01:00pm 11.7 W 11 16 1013.7 - 0.2 - - - - - - -
27/12:30pm 11.4 W 8 9 1014.0 - 0.2 - - - - - - -
27/12:00pm 12.5 WSW 8 10 1014.2 - 0.2 - - - - - - -
27/11:30am 11.9 WSW 8 11 1014.3 - 0.2 - - - - - - -
27/11:00am 11.0 W 6 9 1014.5 - 0.0 - - - - - - -
27/10:30am 9.0 W 4 5 1014.6 - 0.0 - - - - - - -
27/10:00am 7.7 W 4 5 1014.5 - 0.0 - - - - - - -
27/09:30am 7.0 W 4 5 1014.4 - 0.0 - - - - - - -
27/09:00am 4.3 W 2 5 1014.2 - 8.4 - - - - - - -
27/08:30am 2.6 CALM 0 0 1013.9 - 8.4 - - - - - - -
27/08:00am 2.2 CALM 0 0 1013.5 - 8.4 - - - - - - -
27/07:30am 2.7 CALM 0 0 1013.3 - 8.4 - - - - - - -
27/07:00am 3.0 W 2 3 1012.9 - 8.4 - - - - - - -
27/06:30am 3.6 W 3 4 1012.5 - 8.4 - - - - - - -
27/06:00am 4.5 W 3 4 1012.1 - 8.4 - - - - - - -
27/05:30am 6.1 W 5 5 1011.8 - 8.4 - - - - - - -
27/05:00am 6.0 W 5 5 1011.5 - 8.4 - - - - - - -
27/04:30am 6.1 W 6 6 1011.4 - 8.4 - - - - - - -
27/04:00am 7.0 W 6 7 1011.2 - 8.4 - - - - - - -
27/03:30am 6.9 W 5 7 1011.3 - 8.4 - - - - - - -
27/03:00am 7.5 NNW 1 5 1011.4 - 8.2 - - - - - - -
27/02:30am 7.7 CALM 0 0 1011.4 - 8.2 - - - - - - -
27/02:00am 8.7 NNW 6 8 1011.3 - 8.2 - - - - - - -
27/01:30am 9.1 NW 6 8 1011.6 - 7.4 - - - - - - -
27/01:00am 8.7 NW 5 7 1011.7 - 5.8 - - - - - - -
27/12:30am 8.8 NNW 7 11 1011.8 - 5.2 - - - - - - -
27/12:00am 8.9 NW 8 11 1012.0 - 2.6 - - - - - - -
 
Date/Time
EST
Temp
°C
Wind Pressure Rain since
9am
mm
Weather Cloud Vis
km
Sea
Height
m
Swell
Dir  Spd
kts
Gust
kts
hPa Trend Height
m
Period
s
Dir
26/11:30pm 9.4 WNW 13 19 1012.1 - 1.4 - - - - - - -
26/11:00pm 11.3 NNW 14 19 1011.4 - 0.0 - - - - - - -
26/10:30pm 11.2 NNW 13 18 1011.7 - 0.0 - - - - - - -
26/10:00pm 11.1 NNW 11 15 1011.8 - 0.0 - - - - - - -
26/09:30pm 10.8 NNW 12 16 1012.0 - 0.0 - - - - - - -
26/09:00pm 10.3 NNW 9 12 1012.3 - 0.0 - - - - - - -
26/08:30pm 9.8 NNW 8 11 1012.6 - 0.0 - - - - - - -
26/08:00pm 9.8 NNW 9 12 1012.9 - 0.0 - - - - - - -
26/07:30pm 10.2 NNW 8 11 1012.9 - 0.0 - - - - - - -
26/07:00pm 10.3 N 6 9 1013.0 - 0.0 - - - - - - -
26/06:30pm 9.9 N 7 9 1013.1 - 0.0 - - - - - - -
26/06:00pm 10.0 N 8 11 1013.1 - 0.0 - - - - - - -
26/05:30pm 10.3 NNW 8 11 1013.2 - 0.0 - - - - - - -
26/05:00pm 10.2 NNW 9 13 1013.4 - 0.0 - - - - - - -
26/04:30pm 10.5 NNW 11 15 1013.5 - 0.0 - - - - - - -
26/04:00pm 10.8 NNW 12 15 1013.6 - 0.0 - - - - - - -
26/03:30pm 11.0 NNW 10 13 1013.6 - 0.0 - - - - - - -
26/03:00pm 11.4 NNW 10 14 1013.6 - 0.0 - - - - - - -
26/02:30pm 11.5 NNW 11 15 1013.9 - 0.0 - - - - - - -
26/02:00pm 11.5 NNW 12 15 1014.1 - 0.0 - - - - - - -
26/01:30pm 12.1 NNW 13 18 1014.3 - 0.0 - - - - - - -
26/01:00pm 11.7 NNW 15 19 1014.7 - 0.0 - - - - - - -
26/12:30pm 12.6 NW 11 16 1014.9 - 0.0 - - - - - - -
26/12:00pm 11.8 NW 11 14 1015.5 - 0.0 - - - - - - -
26/11:30am 11.5 NW 10 14 1016.1 - 0.0 - - - - - - -
26/11:00am 12.1 NNW 11 15 1016.7 - 0.0 - - - - - - -
26/10:30am 11.9 NW 8 11 1017.0 - 0.0 - - - - - - -
26/10:00am 10.6 NW 3 5 1017.2 - 0.0 - - - - - - -
26/09:30am 8.0 CALM 0 0 1017.3 - 0.0 - - - - - - -
26/09:00am 4.4 CALM 0 0 1017.3 - 2.4 - - - - - - -
26/08:30am 2.7 CALM 0 0 1017.3 - 2.4 - - - - - - -
26/08:00am 1.5 CALM 0 0 1017.4 - 2.4 - - - - - - -
26/07:30am 2.2 WNW 3 3 1017.3 - 2.4 - - - - - - -
26/07:00am 2.2 WNW 4 5 1017.4 - 2.4 - - - - - - -
26/06:30am 3.6 CALM 0 0 1017.3 - 2.4 - - - - - - -
26/06:00am 3.5 WSW 1 7 1017.3 - 2.4 - - - - - - -
26/05:30am 3.9 SW 3 4 1017.2 - 2.4 - - - - - - -
26/05:00am 3.4 SSW 1 3 1017.4 - 2.4 - - - - - - -
26/04:30am 4.1 SSW 3 4 1017.5 - 2.4 - - - - - - -
26/04:00am 2.2 SW 3 5 1017.7 - 1.2 - - - - - - -
26/03:30am 3.2 SW 3 4 1017.7 - 1.2 - - - - - - -
26/03:00am 4.0 SW 5 7 1017.9 - 1.0 - - - - - - -
26/02:30am 3.0 W 1 3 1018.1 - 0.6 - - - - - - -
26/02:00am 2.1 CALM 0 3 1018.2 - 0.4 - - - - - - -
26/01:30am 2.8 W 1 4 1018.3 - 0.4 - - - - - - -
26/01:00am 2.0 W 2 6 1018.4 - 0.4 - - - - - - -
26/12:30am 2.3 CALM 0 0 1018.7 - 0.4 - - - - - - -
26/12:00am 2.6 CALM 0 0 1018.8 - 0.4 - - - - - - -
 
Date/Time
EST
Temp
°C
Wind Pressure Rain since
9am
mm
Weather Cloud Vis
km
Sea
Height
m
Swell
Dir  Spd
kts
Gust
kts
hPa Trend Height
m
Period
s
Dir
25/11:30pm 2.8 CALM 0 0 1018.8 - 0.4 - - - - - - -
25/11:00pm 3.5 CALM 0 0 1019.0 - 0.4 - - - - - - -
25/10:30pm 4.1 CALM 0 0 1019.2 - 0.4 - - - - - - -
25/10:00pm 5.0 CALM 0 0 1019.2 - 0.4 - - - - - - -
25/09:30pm 5.2 CALM 0 0 1019.3 - 0.4 - - - - - - -
25/09:00pm 5.3 CALM 0 0 1019.6 - 0.2 - - - - - - -
25/08:30pm 5.8 CALM 0 0 1019.6 - 0.2 - - - - - - -
25/08:00pm 5.7 WSW 2 4 1019.6 - 0.2 - - - - - - -
25/07:30pm 7.0 WSW 6 7 1019.5 - 0.2 - - - - - - -
25/07:00pm 7.0 W 7 9 1019.4 - 0.2 - - - - - - -
25/06:30pm 7.1 WSW 8 8 1019.4 - 0.2 - - - - - - -
25/06:00pm 7.8 WSW 8 8 1019.2 - 0.2 - - - - - - -
25/05:30pm 8.1 WSW 8 9 1019.2 - 0.2 - - - - - - -
25/05:00pm 9.0 WSW 7 9 1019.1 - 0.2 - - - - - - -
25/04:30pm 10.6 WSW 10 13 1019.1 - 0.2 - - - - - - -
25/04:00pm 11.5 WSW 11 15 1018.9 - 0.2 - - - - - - -
25/03:30pm 11.5 WSW 9 12 1018.9 - 0.2 - - - - - - -
25/03:00pm 12.3 W 15 19 1018.8 - 0.2 - - - - - - -
25/02:30pm 12.4 W 13 16 1018.7 - 0.2 - - - - - - -
25/02:00pm 12.0 W 11 16 1018.8 - 0.2 - - - - - - -
25/01:30pm 11.9 WSW 12 15 1019.0 - 0.2 - - - - - - -
25/01:00pm 12.6 W 12 15 1019.1 - 0.2 - - - - - - -
25/12:30pm 11.3 W 6 10 1019.3 - 0.2 - - - - - - -
25/11:30am 9.8 S 4 5 1019.9 - 0.0 - - - - - - -
25/11:00am 9.5 S 6 9 1020.1 - 0.0 - - - - - - -
25/10:30am 8.8 SW 9 12 1020.3 - 0.0 - - - - - - -
25/10:00am 7.3 SW 7 9 1020.0 - 0.0 - - - - - - -
25/09:30am 4.6 SSW 6 7 1019.7 - 0.0 - - - - - - -
25/09:00am 3.2 SSW 6 7 1019.4 - 9.8 - - - - - - -
25/08:30am 2.4 SSW 4 5 1019.4 - 9.8 - - - - - - -
25/08:00am 1.9 CALM 0 0 1019.4 - 9.8 - - - - - - -
25/07:30am 2.2 CALM 0 3 1019.0 - 9.8 - - - - - - -
25/07:00am 2.9 SSW 4 6 1018.7 - 9.8 - - - - - - -
25/06:30am 2.0 CALM 0 0 1018.5 - 9.6 - - - - - - -
25/06:00am 2.9 SSW 4 5 1018.3 - 9.6 - - - - - - -
25/05:30am 3.0 SW 4 6 1017.8 - 9.6 - - - - - - -
25/05:00am 3.1 W 7 9 1017.4 - 9.6 - - - - - - -
25/04:30am 1.5 WSW 6 8 1017.4 - 9.0 - - - - - - -
25/04:00am 2.3 S 5 8 1017.1 - 8.8 - - - - - - -
25/03:30am 2.3 SW 6 10 1016.8 - 8.8 - - - - - - -
25/03:00am 1.5 SW 4 6 1016.7 - 8.6 - - - - - - -
25/02:30am 2.3 SW 4 6 1016.3 - 8.6 - - - - - - -
25/02:00am 1.6 SW 4 7 1016.0 - 8.2 - - - - - - -
25/01:30am 2.4 NW 7 8 1015.5 - 8.2 - - - - - - -
25/01:00am 1.0 SSE 6 7 1015.8 - 7.8 - - - - - - -
25/12:30am 0.9 SSE 4 10 1015.2 - 7.6 - - - - - - -
25/12:00am 0.7 SSW 2 6 1014.7 - 7.6 - - - - - - -
 
Date/Time
EST
Temp
°C
Wind Pressure Rain since
9am
mm
Weather Cloud Vis
km
Sea
Height
m
Swell
Dir  Spd
kts
Gust
kts
hPa Trend Height
m
Period
s
Dir
24/11:30pm 0.8 CALM 0 0 1014.4 - 7.6 - - - - - - -
24/11:00pm 1.9 SW 1 4 1014.3 - 7.6 - - - - - - -
24/10:30pm 2.4 SW 3 7 1013.8 - 7.6 - - - - - - -
24/10:00pm 1.7 SSW 3 6 1013.4 - 7.6 - - - - - - -
24/09:30pm 1.8 S 4 5 1012.8 - 7.6 - - - - - - -

Other Formats:

Comma delimited format used in spreadsheet applications
http://www.bom.gov.au/fwo/IDV60701/IDV60701.94953.axf

JavaScript Object Notation format (JSON) in row-major order
http://www.bom.gov.au/fwo/IDV60701/IDV60701.94953.json